createdAt,value
2018-03-25T00:01:38.837Z,29.63
2018-03-25T00:04:07.762Z,27.00
2018-03-25T00:06:35.873Z,29.83
2018-03-25T00:09:04.018Z,30.75
2018-03-25T00:11:32.151Z,22.90
2018-03-25T00:14:01.171Z,25.65
2018-03-25T00:16:29.369Z,29.15
2018-03-25T00:18:57.496Z,27.73
2018-03-25T00:21:25.649Z,27.15
2018-03-25T00:23:54.678Z,27.45
2018-03-25T00:26:22.798Z,27.67
2018-03-25T00:28:51.006Z,28.73
2018-03-25T00:31:19.889Z,26.58
2018-03-25T00:33:48.189Z,28.30
2018-03-25T00:36:16.363Z,26.33
2018-03-25T00:38:44.500Z,25.95
2018-03-25T00:41:13.393Z,28.45
2018-03-25T00:43:42.305Z,28.10
2018-03-25T00:46:10.441Z,26.10
2018-03-25T00:48:38.654Z,27.52
2018-03-25T00:51:07.528Z,29.27
2018-03-25T00:53:35.721Z,29.40
2018-03-25T00:56:03.851Z,27.08
2018-03-25T00:58:31.982Z,26.30
2018-03-25T01:01:00.116Z,20.88
2018-03-25T01:03:28.299Z,34.45
2018-03-25T01:05:56.437Z,41.83
2018-03-25T01:08:25.368Z,36.85
2018-03-25T01:10:53.465Z,34.40
2018-03-25T01:13:21.603Z,30.37
2018-03-25T01:16:01.733Z,25.33
2018-03-25T01:18:30.617Z,26.50
2018-03-25T01:20:59.612Z,27.37
2018-03-25T01:23:28.503Z,29.12
2018-03-25T01:25:57.397Z,31.20
2018-03-25T01:28:25.559Z,27.35
2018-03-25T01:30:54.469Z,30.92
2018-03-25T01:33:22.596Z,26.00
2018-03-25T01:35:50.718Z,28.70
2018-03-25T01:38:18.842Z,29.40
2018-03-25T01:40:46.961Z,31.87
2018-03-25T01:43:15.101Z,30.27
2018-03-25T01:45:44.033Z,32.10
2018-03-25T01:48:12.194Z,26.37
2018-03-25T01:50:41.564Z,26.77
2018-03-25T01:53:10.484Z,25.65
2018-03-25T01:55:38.593Z,26.10
2018-03-25T01:58:06.808Z,26.02
2018-03-25T02:00:35.822Z,25.23
2018-03-25T02:03:03.933Z,26.30
2018-03-25T02:05:32.073Z,26.30
2018-03-25T02:08:00.297Z,25.48
2018-03-25T02:10:29.227Z,26.50
2018-03-25T02:12:57.355Z,27.60
2018-03-25T02:15:26.288Z,27.13
2018-03-25T02:17:55.184Z,25.65
2018-03-25T02:20:23.285Z,30.73
2018-03-25T02:22:51.510Z,23.40
2018-03-25T02:25:19.614Z,26.90
2018-03-25T02:27:47.729Z,27.55
2018-03-25T02:30:16.699Z,30.15
2018-03-25T02:32:44.842Z,27.85
2018-03-25T02:35:13.086Z,28.20
2018-03-25T02:37:41.205Z,28.33
2018-03-25T02:40:09.350Z,28.52
2018-03-25T02:42:37.473Z,27.02
2018-03-25T02:45:05.751Z,27.37
2018-03-25T02:47:34.697Z,27.92
2018-03-25T02:50:03.082Z,27.35
2018-03-25T02:52:31.184Z,30.37
2018-03-25T02:54:59.373Z,24.02
2018-03-25T02:57:28.296Z,28.50
2018-03-25T02:59:56.462Z,22.95
2018-03-25T03:02:24.634Z,26.58
2018-03-25T03:04:52.741Z,24.45
2018-03-25T03:07:20.885Z,23.62
2018-03-25T03:09:49.126Z,21.67
2018-03-25T03:12:18.109Z,24.90
2018-03-25T03:14:47.098Z,25.10
2018-03-25T03:17:16.084Z,22.75
2018-03-25T03:19:44.961Z,22.35
2018-03-25T03:22:13.903Z,29.47
2018-03-25T03:24:42.101Z,24.37
2018-03-25T03:27:10.310Z,23.70
2018-03-25T03:29:39.202Z,25.62
2018-03-25T03:32:08.219Z,23.77
2018-03-25T03:34:36.401Z,23.35
2018-03-25T03:37:04.514Z,26.90
2018-03-25T03:39:32.648Z,21.27
2018-03-25T03:42:00.771Z,22.42
2018-03-25T03:44:28.908Z,23.77
2018-03-25T03:46:57.068Z,26.48
2018-03-25T03:49:25.185Z,23.42
2018-03-25T03:51:54.080Z,22.60
2018-03-25T03:54:23.009Z,22.92
2018-03-25T03:56:51.998Z,25.08
2018-03-25T03:59:20.114Z,23.30
2018-03-25T04:01:48.256Z,25.02
2018-03-25T04:04:16.422Z,22.45
2018-03-25T04:06:44.588Z,24.73
2018-03-25T04:09:12.709Z,19.90
2018-03-25T04:11:40.930Z,22.52
2018-03-25T04:14:09.821Z,24.02
2018-03-25T04:16:37.929Z,24.95
2018-03-25T04:19:06.141Z,21.33
2018-03-25T04:21:35.228Z,21.17
2018-03-25T04:24:04.153Z,24.23
2018-03-25T04:26:33.108Z,22.58
2018-03-25T04:29:02.045Z,21.95
2018-03-25T04:31:30.165Z,23.27
2018-03-25T04:33:59.157Z,25.08
2018-03-25T04:36:28.086Z,23.47
2018-03-25T04:38:56.253Z,24.48
2018-03-25T04:41:24.393Z,22.55
2018-03-25T04:43:53.287Z,25.85
2018-03-25T04:46:22.176Z,23.77
2018-03-25T04:48:51.067Z,18.75
2018-03-25T04:51:20.045Z,22.97
2018-03-25T04:53:48.972Z,21.98
2018-03-25T04:56:17.086Z,21.15
2018-03-25T04:58:45.204Z,22.67
2018-03-25T05:01:13.341Z,24.73
2018-03-25T05:03:42.235Z,22.15
2018-03-25T05:06:11.157Z,18.37
2018-03-25T05:08:39.320Z,19.15
2018-03-25T05:11:07.822Z,23.87
2018-03-25T05:13:35.952Z,20.73
2018-03-25T05:16:04.849Z,21.27
2018-03-25T05:18:33.757Z,26.90
2018-03-25T05:21:01.917Z,21.65
2018-03-25T05:23:30.113Z,25.15
2018-03-25T05:25:58.255Z,23.95
2018-03-25T05:28:27.233Z,20.98
2018-03-25T05:30:56.401Z,22.77
2018-03-25T05:33:24.649Z,27.67
2018-03-25T05:35:52.817Z,24.10
2018-03-25T05:38:20.949Z,25.20
2018-03-25T05:40:49.878Z,25.10
2018-03-25T05:43:17.994Z,20.60
2018-03-25T05:45:46.224Z,21.83
2018-03-25T05:48:14.362Z,24.20
2018-03-25T05:50:43.283Z,22.05
2018-03-25T05:53:11.456Z,23.17
2018-03-25T05:55:39.543Z,20.40
2018-03-25T05:58:07.800Z,23.35
2018-03-25T06:00:35.905Z,24.45
2018-03-25T06:03:04.120Z,24.92
2018-03-25T06:05:33.023Z,24.05
2018-03-25T06:08:01.205Z,27.67
2018-03-25T06:10:29.317Z,22.25
2018-03-25T06:12:58.956Z,21.12
2018-03-25T06:15:27.935Z,25.42
2018-03-25T06:17:56.147Z,22.05
2018-03-25T06:20:25.937Z,23.75
2018-03-25T06:22:54.085Z,19.35
2018-03-25T06:25:22.233Z,20.35
2018-03-25T06:27:50.342Z,20.88
2018-03-25T06:30:19.236Z,18.30
2018-03-25T06:32:48.253Z,22.70
2018-03-25T06:35:16.370Z,21.10
2018-03-25T06:37:44.495Z,22.43
2018-03-25T06:40:12.669Z,20.75
2018-03-25T06:42:40.774Z,20.83
2018-03-25T06:45:08.900Z,22.90
2018-03-25T06:47:37.185Z,20.60
2018-03-25T06:50:05.303Z,19.73
2018-03-25T06:52:33.444Z,21.53
2018-03-25T06:55:01.598Z,19.37
2018-03-25T06:57:30.534Z,21.52
2018-03-25T06:59:58.734Z,19.50
2018-03-25T07:02:27.629Z,20.20
2018-03-25T07:04:56.602Z,19.10
2018-03-25T07:07:25.642Z,15.10
2018-03-25T07:09:53.737Z,19.10
2018-03-25T07:12:21.860Z,16.00
2018-03-25T07:14:50.135Z,18.10
2018-03-25T07:17:18.323Z,18.42
2018-03-25T07:19:46.438Z,17.77
2018-03-25T07:22:16.064Z,16.17
2018-03-25T07:24:45.182Z,18.25
2018-03-25T07:27:13.369Z,17.30
2018-03-25T07:29:41.468Z,16.75
2018-03-25T07:32:09.602Z,15.15
2018-03-25T07:34:37.739Z,16.27
2018-03-25T07:37:05.869Z,13.43
2018-03-25T07:39:34.023Z,14.57
2018-03-25T07:42:02.213Z,14.75
2018-03-25T07:44:30.338Z,15.35
2018-03-25T07:46:59.270Z,16.30
2018-03-25T07:49:27.434Z,19.08
2018-03-25T07:51:56.324Z,14.13
2018-03-25T07:54:24.482Z,16.00
2018-03-25T07:56:53.362Z,13.40
2018-03-25T07:59:21.539Z,16.52
2018-03-25T08:01:50.513Z,15.07
2018-03-25T08:04:19.436Z,15.60
2018-03-25T08:06:47.534Z,14.07
2018-03-25T08:09:15.823Z,13.77
2018-03-25T08:11:43.906Z,14.38
2018-03-25T08:14:12.826Z,15.88
2018-03-25T08:16:40.960Z,11.65
2018-03-25T08:19:09.121Z,13.00
2018-03-25T08:21:37.362Z,14.27
2018-03-25T08:24:05.515Z,12.32
2018-03-25T08:26:33.654Z,11.30
2018-03-25T08:29:01.875Z,13.85
2018-03-25T08:31:30.045Z,13.05
2018-03-25T08:33:58.218Z,12.95
2018-03-25T08:36:26.395Z,9.60
2018-03-25T08:38:54.559Z,17.70
2018-03-25T08:41:22.693Z,12.55
2018-03-25T08:43:51.623Z,13.20
2018-03-25T08:46:19.795Z,14.05
2018-03-25T08:48:48.787Z,16.02
2018-03-25T08:51:16.931Z,14.73
2018-03-25T08:53:45.840Z,12.65
2018-03-25T08:56:14.021Z,10.73
2018-03-25T08:58:42.187Z,10.60
2018-03-25T09:01:10.367Z,10.45
2018-03-25T09:03:38.536Z,10.38
2018-03-25T09:06:06.824Z,9.07
2018-03-25T09:08:34.985Z,10.35
2018-03-25T09:11:03.123Z,10.25
2018-03-25T09:13:32.060Z,9.35
2018-03-25T09:16:00.228Z,8.05
2018-03-25T09:18:28.322Z,9.27
2018-03-25T09:20:56.553Z,7.87
2018-03-25T09:23:24.703Z,10.88
2018-03-25T09:25:52.812Z,9.57
2018-03-25T09:28:20.961Z,9.68
2018-03-25T09:30:49.104Z,12.43
2018-03-25T09:33:17.321Z,13.25
2018-03-25T09:35:45.465Z,11.97
2018-03-25T09:38:14.397Z,12.40
2018-03-25T09:40:42.514Z,12.32
2018-03-25T09:43:11.520Z,14.80
2018-03-25T09:45:39.821Z,14.20
2018-03-25T09:48:07.999Z,14.75
2018-03-25T09:50:36.153Z,12.43
2018-03-25T09:53:04.355Z,17.05
2018-03-25T09:55:32.480Z,15.93
2018-03-25T09:58:01.398Z,16.33
2018-03-25T10:00:29.585Z,11.57
2018-03-25T10:02:59.445Z,15.82
2018-03-25T10:05:27.594Z,14.50
2018-03-25T10:07:55.758Z,15.50
2018-03-25T10:10:23.908Z,14.45
2018-03-25T10:12:52.001Z,16.83
2018-03-25T10:15:20.222Z,13.02
2018-03-25T10:17:49.339Z,14.65
2018-03-25T10:20:17.514Z,16.62
2018-03-25T10:22:45.723Z,13.93
2018-03-25T10:25:15.705Z,12.93
2018-03-25T10:27:44.673Z,16.95
2018-03-25T10:30:13.581Z,13.52
2018-03-25T10:32:41.754Z,15.35
2018-03-25T10:35:09.951Z,15.30
2018-03-25T10:37:39.104Z,14.02
2018-03-25T10:40:08.010Z,15.18
2018-03-25T10:42:36.194Z,14.32
2018-03-25T10:45:04.339Z,15.32
2018-03-25T10:47:32.477Z,15.45
2018-03-25T10:50:00.703Z,14.35
2018-03-25T10:52:28.882Z,17.15
2018-03-25T10:54:57.049Z,15.70
2018-03-25T10:57:25.226Z,16.10
2018-03-25T10:59:54.609Z,16.45
2018-03-25T11:02:23.615Z,16.00
2018-03-25T11:04:52.626Z,12.65
2018-03-25T11:07:20.883Z,15.23
2018-03-25T11:09:49.019Z,14.50
2018-03-25T11:12:17.233Z,12.85
2018-03-25T11:14:45.518Z,11.63
2018-03-25T11:17:13.667Z,14.00
2018-03-25T11:19:41.808Z,17.62
2018-03-25T11:22:10.934Z,14.20
2018-03-25T11:24:39.139Z,13.98
2018-03-25T11:27:07.385Z,13.10
2018-03-25T11:29:35.561Z,13.43
2018-03-25T11:32:03.814Z,15.80
2018-03-25T11:34:32.010Z,12.65
2018-03-25T11:37:00.198Z,15.05
2018-03-25T11:39:28.372Z,15.35
2018-03-25T11:41:56.529Z,17.27
2018-03-25T11:44:24.804Z,13.77
2018-03-25T11:46:52.948Z,14.20
2018-03-25T11:49:21.948Z,14.68
2018-03-25T11:51:50.106Z,15.02
2018-03-25T11:54:19.041Z,15.57
2018-03-25T11:56:47.172Z,19.43
2018-03-25T11:59:15.380Z,13.57
2018-03-25T12:01:43.551Z,13.77
2018-03-25T12:04:11.689Z,13.97
2018-03-25T12:06:39.901Z,15.25
2018-03-25T12:09:08.022Z,14.60
2018-03-25T12:11:36.182Z,12.97
2018-03-25T12:14:04.720Z,14.20
2018-03-25T12:16:32.886Z,12.90
2018-03-25T12:19:01.862Z,14.20
2018-03-25T12:21:30.061Z,16.60
2018-03-25T12:23:58.202Z,13.10
2018-03-25T12:26:26.367Z,10.93
2018-03-25T12:28:55.391Z,12.50
2018-03-25T12:31:24.289Z,11.67
2018-03-25T12:33:52.451Z,12.27
2018-03-25T12:36:21.547Z,12.17
2018-03-25T12:38:49.693Z,11.83
2018-03-25T12:41:18.717Z,16.37
2018-03-25T12:43:46.844Z,12.43
2018-03-25T12:46:15.747Z,11.40
2018-03-25T12:48:44.772Z,13.43
2018-03-25T12:51:13.249Z,13.40
2018-03-25T12:53:41.367Z,11.53
2018-03-25T12:56:09.595Z,12.37
2018-03-25T12:58:37.719Z,12.23
2018-03-25T13:01:06.772Z,13.87
2018-03-25T13:03:35.172Z,16.03
2018-03-25T13:06:03.397Z,14.03
2018-03-25T13:08:31.587Z,15.10
2018-03-25T13:10:59.712Z,13.33
2018-03-25T13:13:27.887Z,13.07
2018-03-25T13:15:56.814Z,11.50
2018-03-25T13:18:24.967Z,10.53
2018-03-25T13:20:53.864Z,12.30
2018-03-25T13:23:22.043Z,11.03
2018-03-25T13:25:50.223Z,10.10
2018-03-25T13:28:18.368Z,10.67
2018-03-25T13:30:47.302Z,12.30
2018-03-25T13:33:15.464Z,10.80
2018-03-25T13:35:43.627Z,10.73
2018-03-25T13:38:11.787Z,11.03
2018-03-25T13:40:40.083Z,9.83
2018-03-25T13:43:08.195Z,10.17
2018-03-25T13:45:36.329Z,9.83
2018-03-25T13:48:04.470Z,11.67
2018-03-25T13:50:32.613Z,12.17
2018-03-25T13:53:00.773Z,10.90
2018-03-25T13:55:28.956Z,10.93
2018-03-25T13:57:57.094Z,10.27
2018-03-25T14:00:25.226Z,10.07
2018-03-25T14:02:53.368Z,10.40
2018-03-25T14:05:21.521Z,10.03
2018-03-25T14:07:50.471Z,10.13
2018-03-25T14:10:19.374Z,11.60
2018-03-25T14:12:47.539Z,11.00
2018-03-25T14:15:15.670Z,11.90
2018-03-25T14:17:43.839Z,11.00
2018-03-25T14:20:11.979Z,11.43
2018-03-25T14:22:40.167Z,11.33
2018-03-25T14:25:08.297Z,12.03
2018-03-25T14:27:36.482Z,10.77
2018-03-25T14:30:04.758Z,10.27
2018-03-25T14:32:32.817Z,12.40
2018-03-25T14:35:01.751Z,10.67
2018-03-25T14:37:29.889Z,12.40
2018-03-25T14:39:58.040Z,10.77
2018-03-25T14:42:26.238Z,11.60
2018-03-25T14:44:54.510Z,10.87
2018-03-25T14:47:22.682Z,10.87
2018-03-25T14:49:50.798Z,11.00
2018-03-25T14:52:18.970Z,11.60
2018-03-25T14:54:47.193Z,11.13
2018-03-25T14:57:15.312Z,11.00
2018-03-25T14:59:43.509Z,11.67
2018-03-25T15:02:11.749Z,12.30
2018-03-25T15:04:39.895Z,11.60
2018-03-25T15:07:08.024Z,12.30
2018-03-25T15:09:36.953Z,12.07
2018-03-25T15:12:05.118Z,11.63
2018-03-25T15:14:33.274Z,12.73
2018-03-25T15:17:02.180Z,13.83
2018-03-25T15:19:30.364Z,13.30
2018-03-25T15:21:58.528Z,13.00
2018-03-25T15:24:26.679Z,12.00
2018-03-25T15:26:55.595Z,12.57
2018-03-25T15:29:23.708Z,12.60
2018-03-25T15:31:51.865Z,11.27
2018-03-25T15:34:20.021Z,11.63
2018-03-25T15:36:48.157Z,11.10
2018-03-25T15:39:17.180Z,11.77
2018-03-25T15:41:45.311Z,12.37
2018-03-25T15:44:14.184Z,13.00
2018-03-25T15:46:43.114Z,12.07
2018-03-25T15:49:11.317Z,11.10
2018-03-25T15:51:40.258Z,12.60
2018-03-25T15:54:09.150Z,11.80
2018-03-25T15:56:38.115Z,11.43
2018-03-25T15:59:06.240Z,12.23
2018-03-25T16:01:34.378Z,11.40
2018-03-25T16:04:02.517Z,11.90
2018-03-25T16:06:30.755Z,11.67
2018-03-25T16:08:58.880Z,13.97
2018-03-25T16:11:27.795Z,14.10
2018-03-25T16:13:55.986Z,13.50
2018-03-25T16:16:24.123Z,15.27
2018-03-25T16:18:52.268Z,14.13
2018-03-25T16:21:20.476Z,14.77
2018-03-25T16:23:48.605Z,14.50
2018-03-25T16:26:16.779Z,14.67
2018-03-25T16:28:45.031Z,14.43
2018-03-25T16:31:13.197Z,14.00
2018-03-25T16:33:41.313Z,15.10
2018-03-25T16:36:09.513Z,15.27
2018-03-25T16:38:38.452Z,14.67
2018-03-25T16:41:06.603Z,13.67
2018-03-25T16:43:34.897Z,14.60
2018-03-25T16:46:03.029Z,17.00
2018-03-25T16:48:31.361Z,14.83
2018-03-25T16:50:59.591Z,18.47
2018-03-25T16:53:27.770Z,16.43
2018-03-25T16:55:55.928Z,17.97
2018-03-25T16:58:24.132Z,17.10
2018-03-25T17:00:52.304Z,18.90
2018-03-25T17:03:20.481Z,18.13
2018-03-25T17:05:48.651Z,17.03
2018-03-25T17:08:16.818Z,16.50
2018-03-25T17:10:44.983Z,17.73
2018-03-25T17:13:13.176Z,18.67
2018-03-25T17:15:41.329Z,16.00
2018-03-25T17:18:09.502Z,22.70
2018-03-25T17:20:37.675Z,23.23
2018-03-25T17:23:05.839Z,18.53
2018-03-25T17:25:34.017Z,22.00
2018-03-25T17:28:02.195Z,24.30
2018-03-25T17:30:30.355Z,20.33
2018-03-25T17:32:58.519Z,23.95
2018-03-25T17:35:27.426Z,23.30
2018-03-25T17:37:55.607Z,24.83
2018-03-25T17:40:23.808Z,18.65
2018-03-25T17:42:52.030Z,25.88
2018-03-25T17:45:20.212Z,22.48
2018-03-25T17:47:48.396Z,28.92
2018-03-25T17:50:16.573Z,24.60
2018-03-25T17:52:44.743Z,23.83
2018-03-25T17:55:13.003Z,19.55
2018-03-25T17:57:41.186Z,22.20
2018-03-25T18:00:09.365Z,21.77
2018-03-25T18:02:37.624Z,22.83
2018-03-25T18:05:05.808Z,23.30
2018-03-25T18:07:34.743Z,24.50
2018-03-25T18:10:02.910Z,21.90
2018-03-25T18:12:31.892Z,24.75
2018-03-25T18:15:00.020Z,18.75
2018-03-25T18:17:34.105Z,20.70
2018-03-25T18:19:56.471Z,19.20
2018-03-25T18:22:24.641Z,22.03
2018-03-25T18:24:52.829Z,23.15
2018-03-25T18:27:20.991Z,22.62
2018-03-25T18:29:49.176Z,22.90
2018-03-25T18:32:17.336Z,23.73
2018-03-25T18:34:45.524Z,22.33
2018-03-25T18:37:13.679Z,24.90
2018-03-25T18:39:41.850Z,33.53
2018-03-25T18:42:10.014Z,27.27
2018-03-25T18:44:38.240Z,26.95
2018-03-25T18:47:06.577Z,24.40
2018-03-25T18:49:34.746Z,28.62
2018-03-25T18:52:02.880Z,28.10
2018-03-25T18:54:31.052Z,27.42
2018-03-25T18:57:00.082Z,28.10
2018-03-25T18:59:28.270Z,32.20
2018-03-25T19:01:56.437Z,32.97
2018-03-25T19:04:24.593Z,36.08
2018-03-25T19:06:54.187Z,33.50
2018-03-25T19:09:22.445Z,31.75
2018-03-25T19:11:50.691Z,28.42
2018-03-25T19:14:19.167Z,28.10
2018-03-25T19:16:47.331Z,29.15
2018-03-25T19:19:15.608Z,30.33
2018-03-25T19:21:44.581Z,23.43
2018-03-25T19:24:12.741Z,28.52
2018-03-25T19:26:41.843Z,31.40
2018-03-25T19:29:11.311Z,27.90
2018-03-25T19:31:40.987Z,29.10
2018-03-25T19:34:09.385Z,24.98
2018-03-25T19:36:38.419Z,27.80
2018-03-25T19:39:06.541Z,27.90
2018-03-25T19:41:34.753Z,29.37
2018-03-25T19:44:02.894Z,27.42
2018-03-25T19:46:31.039Z,27.85
2018-03-25T19:48:59.353Z,29.15
2018-03-25T19:51:27.545Z,34.47
2018-03-25T19:53:56.502Z,41.88
2018-03-25T19:56:24.647Z,37.83
2018-03-25T19:58:52.896Z,32.28
2018-03-25T20:01:21.069Z,34.58
2018-03-25T20:03:49.280Z,49.72
2018-03-25T20:06:17.483Z,46.30
2018-03-25T20:08:46.505Z,41.65
2018-03-25T20:11:14.782Z,32.90
2018-03-25T20:13:43.084Z,30.10
2018-03-25T20:16:11.231Z,29.52
2018-03-25T20:18:39.403Z,34.30
2018-03-25T20:21:07.788Z,30.60
2018-03-25T20:23:36.360Z,28.05
2018-03-25T20:26:04.807Z,22.92
2018-03-25T20:28:34.611Z,25.67
2018-03-25T20:31:03.621Z,23.52
2018-03-25T20:33:32.737Z,23.70
2018-03-25T20:36:00.931Z,25.63
2018-03-25T20:38:30.332Z,24.45
2018-03-25T20:40:58.602Z,24.30
2018-03-25T20:43:26.757Z,27.02
2018-03-25T20:45:54.910Z,26.98
2018-03-25T20:48:23.177Z,24.42
2018-03-25T20:50:51.427Z,23.03
2018-03-25T20:53:19.656Z,25.50
2018-03-25T20:55:47.812Z,25.75
2018-03-25T20:58:16.000Z,25.08
2018-03-25T21:00:44.173Z,27.67
2018-03-25T21:03:12.447Z,22.27
2018-03-25T21:05:40.628Z,23.97
2018-03-25T21:08:08.821Z,25.65
2018-03-25T21:10:36.956Z,24.63
2018-03-25T21:13:05.863Z,22.58
2018-03-25T21:15:34.009Z,22.15
2018-03-25T21:18:02.178Z,26.80
2018-03-25T21:20:30.364Z,25.30
2018-03-25T21:22:58.539Z,21.77
2018-03-25T21:25:26.659Z,23.00
2018-03-25T21:27:54.885Z,24.15
2018-03-25T21:30:23.054Z,24.30
2018-03-25T21:32:51.203Z,24.25
2018-03-25T21:35:20.111Z,26.98
2018-03-25T21:37:48.252Z,25.17
2018-03-25T21:40:17.280Z,26.77
2018-03-25T21:42:46.273Z,26.10
2018-03-25T21:45:14.436Z,24.80
2018-03-25T21:47:44.112Z,27.45
2018-03-25T21:50:12.289Z,29.63
2018-03-25T21:52:40.498Z,27.27
2018-03-25T21:55:08.670Z,25.58
2018-03-25T21:57:37.574Z,21.27
2018-03-25T22:00:05.726Z,24.75
2018-03-25T22:02:33.903Z,23.10
2018-03-25T22:05:02.792Z,27.15
2018-03-25T22:07:30.920Z,27.17
2018-03-25T22:09:59.101Z,18.98
2018-03-25T22:12:27.222Z,21.83
2018-03-25T22:14:55.355Z,23.33
2018-03-25T22:17:24.306Z,23.58
2018-03-25T22:19:52.523Z,21.80
2018-03-25T22:22:20.673Z,22.85
2018-03-25T22:24:48.815Z,27.98
2018-03-25T22:27:16.961Z,32.25
2018-03-25T22:29:45.131Z,27.60
2018-03-25T22:32:14.083Z,37.90
2018-03-25T22:34:42.169Z,21.40
2018-03-25T22:37:11.389Z,20.63
2018-03-25T22:39:39.564Z,19.85
2018-03-25T22:42:08.435Z,22.58
2018-03-25T22:44:36.633Z,29.37
2018-03-25T22:47:04.766Z,22.02
2018-03-25T22:49:33.686Z,20.33
2018-03-25T22:52:02.573Z,22.92
2018-03-25T22:54:30.712Z,22.52
2018-03-25T22:56:59.639Z,21.17
2018-03-25T22:59:27.766Z,18.45
2018-03-25T23:01:55.974Z,22.58
2018-03-25T23:04:24.151Z,26.98
2018-03-25T23:06:52.309Z,163.10
2018-03-25T23:09:20.508Z,150.00
2018-03-25T23:11:48.655Z,121.32
2018-03-25T23:14:16.803Z,70.70
2018-03-25T23:16:45.677Z,55.33
2018-03-25T23:19:13.829Z,63.45
2018-03-25T23:21:41.979Z,88.33
2018-03-25T23:24:10.116Z,65.20
2018-03-25T23:26:39.139Z,37.58
2018-03-25T23:29:08.133Z,24.77
2018-03-25T23:31:36.303Z,21.87
2018-03-25T23:34:05.213Z,34.05
2018-03-25T23:36:33.444Z,31.53
2018-03-25T23:39:01.641Z,23.27
2018-03-25T23:41:29.763Z,18.83
2018-03-25T23:43:57.906Z,20.88
2018-03-25T23:46:26.055Z,20.40
2018-03-25T23:48:54.945Z,18.92
2018-03-25T23:51:23.117Z,19.50
2018-03-25T23:53:51.270Z,20.48
2018-03-25T23:56:19.393Z,24.05
2018-03-25T23:58:47.652Z,21.10
